createdAt,value
2023-01-27T00:00:29.768Z,98000.03
2023-01-27T00:02:56.701Z,98001.66
2023-01-27T00:05:24.094Z,97996.69
2023-01-27T00:07:51.068Z,97999.00
2023-01-27T00:10:19.922Z,97994.22
2023-01-27T00:13:06.769Z,97990.78
2023-01-27T00:15:34.300Z,97997.47
2023-01-27T00:18:01.447Z,97992.28
2023-01-27T00:20:47.254Z,97990.38
2023-01-27T00:23:38.458Z,97990.47
2023-01-27T00:26:08.311Z,97990.59
2023-01-27T00:28:36.060Z,97983.22
2023-01-27T00:31:04.264Z,97983.31
2023-01-27T00:33:31.142Z,97986.66
2023-01-27T00:35:59.227Z,97984.13
2023-01-27T00:38:28.053Z,97984.91
2023-01-27T00:41:13.842Z,97986.63
2023-01-27T00:43:40.699Z,97989.91
2023-01-27T00:46:07.665Z,97989.69
2023-01-27T00:48:34.730Z,97988.97
2023-01-27T00:51:01.859Z,97987.25
2023-01-27T00:53:28.902Z,97992.19
2023-01-27T00:55:55.777Z,97984.91
2023-01-27T00:58:22.660Z,98002.00
2023-01-27T01:00:49.586Z,97995.87
2023-01-27T01:03:16.433Z,97995.69
2023-01-27T01:05:43.102Z,97998.91
2023-01-27T01:08:09.962Z,98000.47
2023-01-27T01:10:37.930Z,98008.94
2023-01-27T01:13:04.678Z,98003.81
2023-01-27T01:15:31.512Z,97997.00
2023-01-27T01:17:58.237Z,98004.00
2023-01-27T01:20:25.081Z,98004.84
2023-01-27T01:22:51.733Z,97999.38
2023-01-27T01:25:18.675Z,97998.63
2023-01-27T01:27:46.003Z,97990.31
2023-01-27T01:30:13.500Z,97989.22
2023-01-27T01:32:40.578Z,97992.38
2023-01-27T01:35:07.374Z,97990.97
2023-01-27T01:37:34.233Z,97982.53
2023-01-27T01:40:00.879Z,97986.66
2023-01-27T01:42:53.131Z,97985.03
2023-01-27T01:45:32.208Z,97980.87
2023-01-27T01:48:01.416Z,97979.09
2023-01-27T01:50:28.265Z,97971.50
2023-01-27T01:52:54.958Z,97973.19
2023-01-27T01:55:22.825Z,97965.44
2023-01-27T01:57:49.998Z,97962.75
2023-01-27T02:00:17.563Z,97961.88
2023-01-27T02:02:44.834Z,97957.69
2023-01-27T02:05:18.960Z,97955.94
2023-01-27T02:08:20.738Z,97965.91
2023-01-27T02:10:48.296Z,97976.03
2023-01-27T02:13:15.177Z,97970.97
2023-01-27T02:15:42.106Z,97967.63
2023-01-27T02:18:09.385Z,97964.47
2023-01-27T02:20:41.938Z,97970.38
2023-01-27T02:23:30.519Z,97963.75
2023-01-27T02:26:28.112Z,97958.75
2023-01-27T02:28:58.476Z,97952.66
2023-01-27T02:31:25.697Z,97956.63
2023-01-27T02:33:55.808Z,97950.63
2023-01-27T02:36:22.781Z,97950.56
2023-01-27T02:38:54.256Z,97949.50
2023-01-27T02:41:35.777Z,97943.31
2023-01-27T02:44:02.849Z,97945.59
2023-01-27T02:46:30.189Z,97942.47
2023-01-27T02:48:57.063Z,97941.25
2023-01-27T02:51:23.733Z,97932.59
2023-01-27T02:53:50.691Z,97937.59
2023-01-27T02:56:17.551Z,97940.84
2023-01-27T02:58:44.237Z,97932.34
2023-01-27T03:01:11.311Z,97935.53
2023-01-27T03:03:44.361Z,97938.97
2023-01-27T03:06:11.611Z,97935.44
2023-01-27T03:08:38.489Z,97925.47
2023-01-27T03:11:05.261Z,97932.75
2023-01-27T03:13:32.145Z,97923.75
2023-01-27T03:16:17.728Z,97926.97
2023-01-27T03:18:49.824Z,97926.25
2023-01-27T03:21:19.965Z,97931.19
2023-01-27T03:23:49.248Z,97923.75
2023-01-27T03:26:16.571Z,97929.34
2023-01-27T03:28:43.966Z,97916.56
2023-01-27T03:31:21.957Z,97922.84
2023-01-27T03:33:48.967Z,97928.09
2023-01-27T03:36:35.016Z,97922.13
2023-01-27T03:39:20.671Z,97915.75
2023-01-27T03:42:06.430Z,97911.50
2023-01-27T03:44:51.913Z,97915.66
2023-01-27T03:47:18.802Z,97919.59
2023-01-27T03:49:45.712Z,97920.50
2023-01-27T03:52:12.567Z,97917.31
2023-01-27T03:54:39.272Z,97915.34
2023-01-27T03:57:06.657Z,97914.13
2023-01-27T03:59:33.605Z,97907.69
2023-01-27T04:02:20.043Z,97904.69
2023-01-27T04:05:05.884Z,97902.06
2023-01-27T04:07:35.998Z,97909.81
2023-01-27T04:10:04.419Z,97897.97
2023-01-27T04:12:31.511Z,97896.25
2023-01-27T04:14:58.431Z,97895.75
2023-01-27T04:17:25.165Z,97893.34
2023-01-27T04:19:52.045Z,97885.09
2023-01-27T04:22:18.785Z,97888.69
2023-01-27T04:24:45.679Z,97892.34
2023-01-27T04:27:13.565Z,97883.59
2023-01-27T04:29:41.758Z,97880.94
2023-01-27T04:32:10.241Z,97877.62
2023-01-27T04:34:37.736Z,97881.47
2023-01-27T04:37:06.028Z,97881.81
2023-01-27T04:39:33.528Z,97879.22
2023-01-27T04:42:00.443Z,97875.06
2023-01-27T04:44:27.319Z,97879.34
2023-01-27T04:46:56.765Z,97876.69
2023-01-27T04:49:23.962Z,97876.91
2023-01-27T04:51:50.843Z,97875.19
2023-01-27T04:54:17.609Z,97876.03
2023-01-27T04:56:58.287Z,97875.16
2023-01-27T04:59:25.366Z,97880.25
2023-01-27T05:01:52.507Z,97877.34
2023-01-27T05:04:19.448Z,97876.50
2023-01-27T05:06:46.165Z,97875.19
2023-01-27T05:09:13.131Z,97880.91
2023-01-27T05:11:40.220Z,97885.69
2023-01-27T05:14:06.909Z,97872.13
2023-01-27T05:16:33.796Z,97873.69
2023-01-27T05:19:00.695Z,97875.25
2023-01-27T05:21:31.145Z,97866.66
2023-01-27T05:23:58.098Z,97880.22
2023-01-27T05:26:27.599Z,97883.13
2023-01-27T05:28:57.363Z,97867.06
2023-01-27T05:31:27.103Z,97889.87
2023-01-27T05:33:55.317Z,97894.16
2023-01-27T05:36:23.529Z,97890.50
2023-01-27T05:38:50.371Z,97883.50
2023-01-27T05:41:17.673Z,97884.63
2023-01-27T05:43:46.002Z,97900.69
2023-01-27T05:46:15.311Z,97889.59
2023-01-27T05:48:44.249Z,97899.78
2023-01-27T05:51:14.672Z,97896.50
2023-01-27T05:53:42.328Z,97897.91
2023-01-27T05:56:10.763Z,97900.34
2023-01-27T05:58:38.306Z,97902.66
2023-01-27T06:01:13.957Z,97891.38
2023-01-27T06:03:41.479Z,97900.25
2023-01-27T06:06:09.796Z,97898.94
2023-01-27T06:08:37.463Z,97897.97
2023-01-27T06:11:05.081Z,97896.94
2023-01-27T06:13:32.421Z,97899.69
2023-01-27T06:15:59.379Z,97897.78
2023-01-27T06:18:26.305Z,97904.44
2023-01-27T06:20:53.193Z,97902.72
2023-01-27T06:23:19.820Z,97902.84
2023-01-27T06:25:48.436Z,97900.22
2023-01-27T06:28:28.109Z,97892.47
2023-01-27T06:30:56.787Z,97901.75
2023-01-27T06:33:24.139Z,97899.72
2023-01-27T06:35:51.065Z,97902.31
2023-01-27T06:38:17.940Z,97893.00
2023-01-27T06:40:44.609Z,97898.28
2023-01-27T06:43:14.796Z,97904.25
2023-01-27T06:45:41.677Z,97901.06
2023-01-27T06:48:08.873Z,97904.37
2023-01-27T06:50:36.427Z,97905.56
2023-01-27T06:53:05.768Z,97909.16
2023-01-27T06:55:33.807Z,97913.19
2023-01-27T06:58:02.302Z,97907.97
2023-01-27T07:00:29.466Z,97907.97
2023-01-27T07:02:56.820Z,97908.72
2023-01-27T07:05:23.892Z,97907.91
2023-01-27T07:07:50.759Z,97917.72
2023-01-27T07:10:17.652Z,97902.25
2023-01-27T07:12:44.562Z,97907.22
2023-01-27T07:15:11.691Z,97919.25
2023-01-27T07:17:38.791Z,97912.50
2023-01-27T07:20:08.437Z,97919.87
2023-01-27T07:22:35.422Z,97921.19
2023-01-27T07:25:03.018Z,97925.56
2023-01-27T07:27:29.920Z,97928.97
2023-01-27T07:29:56.605Z,97925.12
2023-01-27T07:32:23.489Z,97930.53
2023-01-27T07:34:50.170Z,97928.09
2023-01-27T07:37:17.138Z,97926.66
2023-01-27T07:39:44.106Z,97929.47
2023-01-27T07:42:10.816Z,97924.00
2023-01-27T07:44:37.718Z,97923.94
2023-01-27T07:47:05.702Z,97928.59
2023-01-27T07:49:32.459Z,97924.94
2023-01-27T07:51:59.429Z,97916.34
2023-01-27T07:54:26.343Z,97922.72
2023-01-27T07:56:53.013Z,97917.38
2023-01-27T07:59:20.104Z,97910.16
2023-01-27T08:01:48.310Z,97916.25
2023-01-27T08:04:16.380Z,97917.72
2023-01-27T08:06:43.320Z,97913.63
2023-01-27T08:09:10.353Z,97911.88
2023-01-27T08:11:37.377Z,97911.91
2023-01-27T08:14:04.305Z,97909.50
2023-01-27T08:16:31.020Z,97912.84
2023-01-27T08:18:58.886Z,97911.66
2023-01-27T08:21:25.916Z,97920.13
2023-01-27T08:23:54.004Z,97918.75
2023-01-27T08:26:20.903Z,97919.56
2023-01-27T08:28:47.610Z,97929.84
2023-01-27T08:31:16.753Z,97920.44
2023-01-27T08:33:45.619Z,97928.72
2023-01-27T08:36:15.037Z,97924.84
2023-01-27T08:38:43.019Z,97928.22
2023-01-27T08:41:13.138Z,97929.28
2023-01-27T08:43:40.842Z,97934.53
2023-01-27T08:46:08.838Z,97925.47
2023-01-27T08:48:36.767Z,97934.13
2023-01-27T08:51:04.619Z,97930.50
2023-01-27T08:53:31.665Z,97927.37
2023-01-27T08:56:02.999Z,97922.84
2023-01-27T08:58:29.911Z,97923.50
2023-01-27T09:00:59.409Z,97922.88
2023-01-27T09:03:26.366Z,97928.72
2023-01-27T09:05:53.351Z,97925.44
2023-01-27T09:08:20.253Z,97934.06
2023-01-27T09:10:46.906Z,97939.28
2023-01-27T09:13:13.761Z,97935.44
2023-01-27T09:15:41.151Z,97935.59
2023-01-27T09:18:08.037Z,97938.25
2023-01-27T09:20:37.226Z,97941.31
2023-01-27T09:23:05.337Z,97938.06
2023-01-27T09:25:32.227Z,97939.88
2023-01-27T09:27:59.871Z,97949.78
2023-01-27T09:30:28.464Z,97954.56
2023-01-27T09:32:59.343Z,97951.34
2023-01-27T09:35:27.760Z,97949.47
2023-01-27T09:37:58.515Z,97951.88
2023-01-27T09:40:43.984Z,97941.72
2023-01-27T09:43:18.075Z,97953.81
2023-01-27T09:45:56.847Z,97945.06
2023-01-27T09:48:27.609Z,97939.97
2023-01-27T09:51:08.784Z,97937.88
2023-01-27T09:54:14.511Z,97936.50
2023-01-27T09:57:00.399Z,97954.34
2023-01-27T10:00:08.981Z,97948.69
2023-01-27T10:02:51.493Z,97945.94
2023-01-27T10:05:45.991Z,97944.50
2023-01-27T10:08:19.080Z,97945.97
2023-01-27T10:10:59.132Z,97943.22
2023-01-27T10:13:30.056Z,97941.16
2023-01-27T10:16:10.516Z,97936.31
2023-01-27T10:19:03.879Z,97929.28
2023-01-27T10:21:52.087Z,97932.91
2023-01-27T10:24:40.540Z,97931.97
2023-01-27T10:27:20.227Z,97925.31
2023-01-27T10:32:57.692Z,97933.34
2023-01-27T10:35:53.729Z,97933.16
2023-01-27T10:39:14.109Z,97932.97
2023-01-27T10:42:02.113Z,97913.37
2023-01-27T10:44:44.241Z,97921.13
2023-01-27T10:47:38.688Z,97920.63
2023-01-27T10:50:09.911Z,97911.84
2023-01-27T10:53:00.154Z,97910.19
2023-01-27T10:55:33.568Z,97911.72
2023-01-27T10:58:37.302Z,97903.06
2023-01-27T11:01:23.862Z,97901.22
2023-01-27T11:03:59.333Z,97898.63
2023-01-27T11:06:31.318Z,97891.56
2023-01-27T11:09:19.743Z,97895.69
2023-01-27T11:11:49.476Z,97895.16
2023-01-27T11:14:30.588Z,97892.41
2023-01-27T11:17:36.970Z,97890.63
2023-01-27T11:20:29.697Z,97896.16
2023-01-27T11:23:26.571Z,97897.31
2023-01-27T11:26:15.180Z,97890.47
2023-01-27T11:28:55.775Z,97885.00
2023-01-27T11:31:43.416Z,97880.69
2023-01-27T11:34:33.928Z,97883.25
2023-01-27T11:37:02.798Z,97871.16
2023-01-27T11:39:32.768Z,97871.03
2023-01-27T11:41:59.747Z,97863.84
2023-01-27T11:44:33.036Z,97862.22
2023-01-27T11:47:00.188Z,97859.59
2023-01-27T11:49:39.436Z,97860.59
2023-01-27T11:52:13.133Z,97857.63
2023-01-27T11:54:47.391Z,97857.34
2023-01-27T11:57:23.780Z,97864.25
2023-01-27T12:00:04.485Z,97861.22
2023-01-27T12:03:10.143Z,97870.28
2023-01-27T12:05:41.707Z,97859.81
2023-01-27T12:08:08.686Z,97855.44
2023-01-27T12:10:40.336Z,97860.56
2023-01-27T12:13:25.876Z,97857.06
2023-01-27T12:15:56.198Z,97853.22
2023-01-27T12:18:26.418Z,97864.06
2023-01-27T12:21:05.106Z,97852.03
2023-01-27T12:23:36.230Z,97851.72
2023-01-27T12:26:08.222Z,97849.53
2023-01-27T12:28:35.716Z,97855.56
2023-01-27T12:31:11.320Z,97843.16
2023-01-27T12:33:41.162Z,97848.81
2023-01-27T12:36:14.568Z,97837.41
2023-01-27T12:38:49.226Z,97833.81
2023-01-27T12:41:24.103Z,97829.47
2023-01-27T12:43:53.637Z,97825.66
2023-01-27T12:46:24.059Z,97832.16
2023-01-27T12:48:53.216Z,97821.25
2023-01-27T12:51:24.811Z,97827.19
2023-01-27T12:53:51.816Z,97830.16
2023-01-27T12:56:21.437Z,97822.44
2023-01-27T12:58:54.554Z,97815.63
2023-01-27T13:01:26.368Z,97824.59
2023-01-27T13:04:01.768Z,97823.78
2023-01-27T13:06:37.699Z,97816.66
2023-01-27T13:09:04.710Z,97822.44
2023-01-27T13:11:41.726Z,97814.59
2023-01-27T13:14:13.814Z,97815.31
2023-01-27T13:16:40.715Z,97818.34
2023-01-27T13:19:17.258Z,97818.72
2023-01-27T13:21:45.571Z,97812.25
2023-01-27T13:24:24.579Z,97813.06
2023-01-27T13:26:52.441Z,97811.13
2023-01-27T13:29:26.206Z,97816.34
2023-01-27T13:31:59.220Z,97806.94
2023-01-27T13:34:37.961Z,97819.81
2023-01-27T13:37:10.912Z,97820.00
2023-01-27T13:39:59.999Z,97823.53
2023-01-27T13:42:45.159Z,97825.53
2023-01-27T13:45:17.056Z,97827.19
2023-01-27T13:47:57.347Z,97828.84
2023-01-27T13:50:32.593Z,97825.72
2023-01-27T13:53:00.643Z,97825.16
2023-01-27T13:55:58.417Z,97834.84
2023-01-27T13:58:28.356Z,97835.00
2023-01-27T14:01:07.404Z,97847.94
2023-01-27T14:04:02.874Z,97843.91
2023-01-27T14:06:44.657Z,97838.22
2023-01-27T14:09:35.934Z,97833.12
2023-01-27T14:12:25.292Z,97833.88
2023-01-27T14:14:58.898Z,97840.62
2023-01-27T14:17:46.411Z,97845.50
2023-01-27T14:20:28.919Z,97854.97
2023-01-27T14:23:21.705Z,97851.81
2023-01-27T14:26:10.697Z,97852.34
2023-01-27T14:28:55.127Z,97848.66
2023-01-27T14:31:43.654Z,97842.66
2023-01-27T14:34:45.878Z,97853.34
2023-01-27T14:37:30.858Z,97856.56
2023-01-27T14:40:14.307Z,97853.66
2023-01-27T14:43:11.233Z,97852.13
2023-01-27T14:45:40.797Z,97857.25
2023-01-27T14:48:10.836Z,97850.50
2023-01-27T14:50:46.909Z,97854.84
2023-01-27T14:53:36.068Z,97859.28
2023-01-27T14:56:18.452Z,97857.25
2023-01-27T14:58:54.547Z,97861.94
2023-01-27T15:01:40.295Z,97863.62
2023-01-27T15:04:42.547Z,97856.22
2023-01-27T15:07:20.208Z,97863.75
2023-01-27T15:10:36.786Z,97856.84
2023-01-27T15:13:27.861Z,97864.72
2023-01-27T15:15:54.675Z,97866.09
2023-01-27T15:18:53.970Z,97868.63
2023-01-27T15:21:36.567Z,97864.66
2023-01-27T15:24:25.705Z,97862.81
2023-01-27T15:26:53.455Z,97868.63
2023-01-27T15:29:25.664Z,97865.16
2023-01-27T15:32:13.267Z,97876.25
2023-01-27T15:34:40.247Z,97866.31
2023-01-27T15:37:10.149Z,97868.78
2023-01-27T15:40:06.178Z,97872.31
2023-01-27T15:42:58.085Z,97872.31
2023-01-27T15:45:30.519Z,97863.84
2023-01-27T15:48:00.024Z,97868.09
2023-01-27T15:50:30.999Z,97862.09
2023-01-27T15:53:14.977Z,97863.62
2023-01-27T15:55:51.445Z,97864.41
2023-01-27T15:58:38.096Z,97866.03
2023-01-27T16:01:08.452Z,97877.53
2023-01-27T16:03:38.089Z,97874.13
2023-01-27T16:06:12.477Z,97872.44
2023-01-27T16:08:43.488Z,97874.25
2023-01-27T16:11:29.876Z,97877.66
2023-01-27T16:14:12.045Z,97885.19
2023-01-27T16:16:40.155Z,97877.66
2023-01-27T16:19:10.870Z,97887.84
2023-01-27T16:21:42.433Z,97885.28
2023-01-27T16:24:42.358Z,97897.09
2023-01-27T16:27:34.727Z,97891.91
2023-01-27T16:30:15.198Z,97892.78
2023-01-27T16:32:50.907Z,97896.25
2023-01-27T16:35:20.655Z,97908.00
2023-01-27T16:38:01.108Z,97901.94
2023-01-27T16:40:28.278Z,97909.44
2023-01-27T16:43:08.585Z,97903.50
2023-01-27T16:45:47.852Z,97892.03
2023-01-27T16:48:38.539Z,97901.22
2023-01-27T16:51:19.438Z,97893.56
2023-01-27T16:53:50.566Z,97906.16
2023-01-27T16:56:29.242Z,97910.53
2023-01-27T16:59:21.570Z,97926.63
2023-01-27T17:01:56.452Z,97918.91
2023-01-27T17:04:26.084Z,97923.94
2023-01-27T17:06:56.551Z,97921.47
2023-01-27T17:09:26.040Z,97919.09
2023-01-27T17:11:53.918Z,97915.66
2023-01-27T17:14:30.549Z,97924.91
2023-01-27T17:17:01.184Z,97928.34
2023-01-27T17:19:31.836Z,97935.09
2023-01-27T17:22:11.632Z,97946.97
2023-01-27T17:24:43.856Z,97955.44
2023-01-27T17:27:21.582Z,97941.94
2023-01-27T17:29:50.166Z,97952.09
2023-01-27T17:32:30.835Z,97957.19
2023-01-27T17:34:59.992Z,97958.00
2023-01-27T17:37:28.041Z,97957.87
2023-01-27T17:39:57.758Z,97957.75
2023-01-27T17:42:26.508Z,97960.34
2023-01-27T17:44:53.380Z,97956.16
2023-01-27T17:47:20.518Z,97961.88
2023-01-27T17:49:49.077Z,97950.22
2023-01-27T17:52:20.219Z,97951.94
2023-01-27T17:54:47.229Z,97956.97
2023-01-27T17:57:21.398Z,97957.94
2023-01-27T18:00:07.192Z,97964.47
2023-01-27T18:02:36.382Z,97959.59
2023-01-27T18:05:14.452Z,97960.50
2023-01-27T18:07:41.604Z,97955.41
2023-01-27T18:10:28.650Z,97946.13
2023-01-27T18:12:55.748Z,97954.59
2023-01-27T18:15:37.824Z,97962.28
2023-01-27T18:18:24.725Z,97967.28
2023-01-27T18:21:04.612Z,97965.47
2023-01-27T18:23:43.410Z,97960.38
2023-01-27T18:26:20.740Z,97954.31
2023-01-27T18:28:53.830Z,97963.63
2023-01-27T18:31:27.135Z,97965.53
2023-01-27T18:34:22.934Z,97960.59
2023-01-27T18:36:54.210Z,97965.66
2023-01-27T18:39:33.427Z,97966.41
2023-01-27T18:42:01.468Z,97975.75
2023-01-27T18:44:34.381Z,97972.34
2023-01-27T18:47:19.767Z,97970.62
2023-01-27T18:49:54.586Z,97971.47
2023-01-27T18:52:21.678Z,97980.72
2023-01-27T18:54:48.923Z,97980.72
2023-01-27T18:57:15.787Z,97974.75
2023-01-27T18:59:42.543Z,97983.84
2023-01-27T19:02:15.054Z,97983.91
2023-01-27T19:04:42.481Z,97979.03
2023-01-27T19:07:13.912Z,97986.78
2023-01-27T19:09:40.759Z,97984.13
2023-01-27T19:12:07.511Z,97984.13
2023-01-27T19:14:35.075Z,97982.50
2023-01-27T19:17:02.014Z,97985.00
2023-01-27T19:19:29.397Z,97979.03
2023-01-27T19:21:56.278Z,97980.53
2023-01-27T19:24:23.078Z,97987.34
2023-01-27T19:26:49.996Z,97982.31
2023-01-27T19:29:16.656Z,97983.88
2023-01-27T19:31:43.607Z,97985.34
2023-01-27T19:34:11.125Z,97989.66
2023-01-27T19:36:42.961Z,97984.75
2023-01-27T19:39:17.596Z,97991.56
2023-01-27T19:41:47.521Z,97985.59
2023-01-27T19:44:15.273Z,97996.47
2023-01-27T19:46:43.150Z,97999.06
2023-01-27T19:49:19.891Z,97998.34
2023-01-27T19:51:46.861Z,98002.63
2023-01-27T19:54:13.713Z,98000.16
2023-01-27T19:56:40.369Z,97999.25
2023-01-27T19:59:08.333Z,98008.47
2023-01-27T20:01:35.277Z,98008.50
2023-01-27T20:04:02.220Z,98010.13
2023-01-27T20:06:31.427Z,98011.00
2023-01-27T20:08:59.951Z,98015.28
2023-01-27T20:11:31.328Z,98015.81
2023-01-27T20:13:58.770Z,98015.94
2023-01-27T20:16:25.894Z,98019.81
2023-01-27T20:18:54.057Z,98023.28
2023-01-27T20:21:21.148Z,98021.69
2023-01-27T20:23:48.056Z,98021.50
2023-01-27T20:26:20.822Z,98025.97
2023-01-27T20:28:49.032Z,98025.22
2023-01-27T20:31:18.986Z,98021.19
2023-01-27T20:33:50.132Z,98033.59
2023-01-27T20:36:22.803Z,98029.56
2023-01-27T20:38:49.999Z,98038.81
2023-01-27T20:41:19.317Z,98037.06
2023-01-27T20:43:46.553Z,98041.00
2023-01-27T20:46:17.057Z,98047.84
2023-01-27T20:48:44.463Z,98039.59
2023-01-27T20:51:14.059Z,98045.31
2023-01-27T20:53:45.481Z,98045.09
2023-01-27T20:56:20.843Z,98037.59
2023-01-27T20:58:48.221Z,98034.53
2023-01-27T21:01:22.699Z,98032.31
2023-01-27T21:03:50.800Z,98035.37
2023-01-27T21:06:20.095Z,98037.78
2023-01-27T21:08:50.133Z,98042.06
2023-01-27T21:11:20.192Z,98030.38
2023-01-27T21:13:47.974Z,98038.78
2023-01-27T21:16:15.347Z,98029.56
2023-01-27T21:18:42.548Z,98026.19
2023-01-27T21:21:22.143Z,98030.66
2023-01-27T21:23:49.018Z,98036.59
2023-01-27T21:26:15.701Z,98031.44
2023-01-27T21:28:42.606Z,98031.34
2023-01-27T21:31:12.024Z,98028.72
2023-01-27T21:33:39.658Z,98039.66
2023-01-27T21:36:10.297Z,98038.78
2023-01-27T21:38:38.418Z,98032.31
2023-01-27T21:41:37.041Z,98033.06
2023-01-27T21:44:23.480Z,98036.47
2023-01-27T21:46:50.412Z,98034.72
2023-01-27T21:49:17.320Z,98048.31
2023-01-27T21:51:44.052Z,98044.75
2023-01-27T21:54:10.935Z,98050.53
2023-01-27T21:56:37.836Z,98035.53
2023-01-27T21:59:04.840Z,98040.41
2023-01-27T22:01:31.897Z,98038.19
2023-01-27T22:03:58.853Z,98047.47
2023-01-27T22:06:25.822Z,98047.56
2023-01-27T22:08:52.746Z,98045.78
2023-01-27T22:11:19.654Z,98047.38
2023-01-27T22:13:46.550Z,98053.34
2023-01-27T22:16:14.686Z,98053.47
2023-01-27T22:18:42.119Z,98044.84
2023-01-27T22:21:09.671Z,98048.22
2023-01-27T22:23:36.581Z,98049.94
2023-01-27T22:26:06.853Z,98053.38
2023-01-27T22:28:33.778Z,98049.84
2023-01-27T22:31:00.972Z,98056.06
2023-01-27T22:33:28.092Z,98059.25
2023-01-27T22:36:05.128Z,98053.47
2023-01-27T22:38:32.031Z,98051.56
2023-01-27T22:40:59.071Z,98042.37
2023-01-27T22:43:26.036Z,98041.44
2023-01-27T22:45:53.003Z,98050.03
2023-01-27T22:48:19.967Z,98052.59
2023-01-27T22:50:46.857Z,98057.44
2023-01-27T22:53:13.536Z,98054.78
2023-01-27T22:55:40.412Z,98054.09
2023-01-27T22:58:07.239Z,98058.37
2023-01-27T23:00:34.106Z,98055.63
2023-01-27T23:03:01.191Z,98058.94
2023-01-27T23:05:28.185Z,98061.66
2023-01-27T23:07:55.005Z,98049.78
2023-01-27T23:10:21.673Z,98050.00
2023-01-27T23:12:48.594Z,98045.66
2023-01-27T23:15:15.793Z,98041.44
2023-01-27T23:17:42.767Z,98054.34
2023-01-27T23:20:09.854Z,98048.31
2023-01-27T23:22:36.797Z,98054.25
2023-01-27T23:25:03.733Z,98061.09
2023-01-27T23:27:30.715Z,98056.84
2023-01-27T23:29:57.570Z,98056.87
2023-01-27T23:32:24.232Z,98056.06
2023-01-27T23:34:51.078Z,98057.72
2023-01-27T23:37:17.739Z,98061.12
2023-01-27T23:39:48.789Z,98056.03
2023-01-27T23:42:19.696Z,98062.03
2023-01-27T23:44:47.021Z,98061.19
2023-01-27T23:47:14.871Z,98067.16
2023-01-27T23:49:41.716Z,98060.34
2023-01-27T23:52:08.396Z,98062.09
2023-01-27T23:54:35.220Z,98061.22
2023-01-27T23:57:01.919Z,98059.56
2023-01-27T23:59:28.785Z,98059.53
